sensor_id;sensor_type;location;lat;lon;timestamp;temperature;humidity
431;DHT22;202;48.764;9.172;2022-11-23T00:01:56;7.20;62.00
431;DHT22;202;48.764;9.172;2022-11-23T00:04:25;7.10;61.20
431;DHT22;202;48.764;9.172;2022-11-23T00:06:52;6.90;62.30
431;DHT22;202;48.764;9.172;2022-11-23T00:09:18;7.00;62.10
431;DHT22;202;48.764;9.172;2022-11-23T00:11:45;6.90;62.90
431;DHT22;202;48.764;9.172;2022-11-23T00:14:12;7.00;62.50
431;DHT22;202;48.764;9.172;2022-11-23T00:16:39;7.00;61.80
431;DHT22;202;48.764;9.172;2022-11-23T00:19:06;6.80;62.10
431;DHT22;202;48.764;9.172;2022-11-23T00:21:34;6.90;63.20
431;DHT22;202;48.764;9.172;2022-11-23T00:24:01;7.00;62.20
431;DHT22;202;48.764;9.172;2022-11-23T00:26:31;7.00;61.40
431;DHT22;202;48.764;9.172;2022-11-23T00:28:58;6.90;62.40
431;DHT22;202;48.764;9.172;2022-11-23T00:31:25;6.90;62.50
431;DHT22;202;48.764;9.172;2022-11-23T00:33:53;6.80;62.60
431;DHT22;202;48.764;9.172;2022-11-23T00:36:21;6.90;62.40
431;DHT22;202;48.764;9.172;2022-11-23T00:38:51;7.00;61.10
431;DHT22;202;48.764;9.172;2022-11-23T00:41:22;6.90;61.30
431;DHT22;202;48.764;9.172;2022-11-23T00:44:08;6.80;62.20
431;DHT22;202;48.764;9.172;2022-11-23T00:46:37;6.80;62.20
431;DHT22;202;48.764;9.172;2022-11-23T00:49:04;6.70;63.10
431;DHT22;202;48.764;9.172;2022-11-23T00:51:32;6.80;62.10
431;DHT22;202;48.764;9.172;2022-11-23T00:54:03;6.80;61.90
431;DHT22;202;48.764;9.172;2022-11-23T00:56:31;6.80;62.00
431;DHT22;202;48.764;9.172;2022-11-23T00:59:00;6.60;63.80
431;DHT22;202;48.764;9.172;2022-11-23T01:01:33;6.70;63.60
431;DHT22;202;48.764;9.172;2022-11-23T01:04:04;6.60;64.20
431;DHT22;202;48.764;9.172;2022-11-23T01:06:33;6.60;64.60
431;DHT22;202;48.764;9.172;2022-11-23T01:09:05;6.60;63.20
431;DHT22;202;48.764;9.172;2022-11-23T01:11:32;6.60;64.00
431;DHT22;202;48.764;9.172;2022-11-23T01:14:00;6.60;64.50
431;DHT22;202;48.764;9.172;2022-11-23T01:16:28;6.70;64.20
431;DHT22;202;48.764;9.172;2022-11-23T01:18:57;6.60;63.70
431;DHT22;202;48.764;9.172;2022-11-23T01:21:26;6.70;64.00
431;DHT22;202;48.764;9.172;2022-11-23T01:23:53;6.50;64.50
431;DHT22;202;48.764;9.172;2022-11-23T01:26:22;6.50;65.10
431;DHT22;202;48.764;9.172;2022-11-23T01:28:50;6.60;64.90
431;DHT22;202;48.764;9.172;2022-11-23T01:31:18;6.80;64.10
431;DHT22;202;48.764;9.172;2022-11-23T01:33:46;6.70;63.40
431;DHT22;202;48.764;9.172;2022-11-23T01:36:15;6.80;63.20
431;DHT22;202;48.764;9.172;2022-11-23T01:38:43;6.70;62.80
431;DHT22;202;48.764;9.172;2022-11-23T01:41:13;6.70;63.60
431;DHT22;202;48.764;9.172;2022-11-23T01:43:41;6.60;64.30
431;DHT22;202;48.764;9.172;2022-11-23T01:46:09;6.70;63.20
431;DHT22;202;48.764;9.172;2022-11-23T01:48:39;6.50;65.40
431;DHT22;202;48.764;9.172;2022-11-23T01:51:12;6.60;64.20
431;DHT22;202;48.764;9.172;2022-11-23T01:53:40;6.60;63.80
431;DHT22;202;48.764;9.172;2022-11-23T01:56:10;6.60;64.30
431;DHT22;202;48.764;9.172;2022-11-23T01:58:41;6.70;63.70
431;DHT22;202;48.764;9.172;2022-11-23T02:01:10;6.60;64.00
431;DHT22;202;48.764;9.172;2022-11-23T02:03:38;6.50;65.60
431;DHT22;202;48.764;9.172;2022-11-23T02:06:09;6.60;65.50
431;DHT22;202;48.764;9.172;2022-11-23T02:08:37;6.50;65.60
431;DHT22;202;48.764;9.172;2022-11-23T02:11:04;6.60;64.40
431;DHT22;202;48.764;9.172;2022-11-23T02:13:31;6.60;64.90
431;DHT22;202;48.764;9.172;2022-11-23T02:16:00;6.80;64.90
431;DHT22;202;48.764;9.172;2022-11-23T02:18:29;6.80;64.50
431;DHT22;202;48.764;9.172;2022-11-23T02:20:57;6.80;63.70
431;DHT22;202;48.764;9.172;2022-11-23T02:23:32;6.80;63.10
431;DHT22;202;48.764;9.172;2022-11-23T02:26:05;6.80;63.60
431;DHT22;202;48.764;9.172;2022-11-23T02:28:36;6.80;63.40
431;DHT22;202;48.764;9.172;2022-11-23T02:31:05;6.90;63.20
431;DHT22;202;48.764;9.172;2022-11-23T02:33:32;6.90;63.60
431;DHT22;202;48.764;9.172;2022-11-23T02:36:00;6.90;63.40
431;DHT22;202;48.764;9.172;2022-11-23T02:38:29;7.00;63.60
431;DHT22;202;48.764;9.172;2022-11-23T02:40:57;6.80;64.40
431;DHT22;202;48.764;9.172;2022-11-23T02:43:26;7.00;63.70
431;DHT22;202;48.764;9.172;2022-11-23T02:45:54;7.00;63.00
431;DHT22;202;48.764;9.172;2022-11-23T02:48:22;7.10;62.60
431;DHT22;202;48.764;9.172;2022-11-23T02:50:49;6.80;63.40
431;DHT22;202;48.764;9.172;2022-11-23T02:53:16;6.70;63.80
431;DHT22;202;48.764;9.172;2022-11-23T02:55:44;6.70;63.90
431;DHT22;202;48.764;9.172;2022-11-23T02:58:11;6.70;64.60
431;DHT22;202;48.764;9.172;2022-11-23T03:00:39;6.70;64.60
431;DHT22;202;48.764;9.172;2022-11-23T03:03:06;6.80;63.90
431;DHT22;202;48.764;9.172;2022-11-23T03:05:33;6.70;63.80
431;DHT22;202;48.764;9.172;2022-11-23T03:08:00;6.80;63.90
431;DHT22;202;48.764;9.172;2022-11-23T03:10:27;6.80;63.70
431;DHT22;202;48.764;9.172;2022-11-23T03:12:54;6.80;63.80
431;DHT22;202;48.764;9.172;2022-11-23T03:15:22;6.90;63.50
431;DHT22;202;48.764;9.172;2022-11-23T03:17:50;6.90;62.80
431;DHT22;202;48.764;9.172;2022-11-23T03:20:17;7.00;63.10
431;DHT22;202;48.764;9.172;2022-11-23T03:22:44;7.20;62.50
431;DHT22;202;48.764;9.172;2022-11-23T03:25:11;7.30;61.60
431;DHT22;202;48.764;9.172;2022-11-23T03:27:38;7.30;61.40
431;DHT22;202;48.764;9.172;2022-11-23T03:30:06;7.40;60.70
431;DHT22;202;48.764;9.172;2022-11-23T03:32:33;7.40;60.80
431;DHT22;202;48.764;9.172;2022-11-23T03:35:03;7.40;60.50
431;DHT22;202;48.764;9.172;2022-11-23T03:37:30;7.50;60.00
431;DHT22;202;48.764;9.172;2022-11-23T03:39:57;7.50;59.40
431;DHT22;202;48.764;9.172;2022-11-23T03:42:24;7.40;59.50
431;DHT22;202;48.764;9.172;2022-11-23T03:44:51;7.40;59.60
431;DHT22;202;48.764;9.172;2022-11-23T03:47:18;7.40;59.60
431;DHT22;202;48.764;9.172;2022-11-23T03:49:44;7.20;59.80
431;DHT22;202;48.764;9.172;2022-11-23T03:52:13;7.20;60.50
431;DHT22;202;48.764;9.172;2022-11-23T03:54:40;7.20;60.50
431;DHT22;202;48.764;9.172;2022-11-23T03:57:07;7.30;60.70
431;DHT22;202;48.764;9.172;2022-11-23T03:59:34;7.30;60.20
431;DHT22;202;48.764;9.172;2022-11-23T04:02:00;7.40;59.10
431;DHT22;202;48.764;9.172;2022-11-23T04:04:29;7.30;58.80
431;DHT22;202;48.764;9.172;2022-11-23T04:06:56;7.30;58.80
431;DHT22;202;48.764;9.172;2022-11-23T04:09:25;7.40;58.50
431;DHT22;202;48.764;9.172;2022-11-23T04:11:52;7.30;58.30
431;DHT22;202;48.764;9.172;2022-11-23T04:14:20;7.20;59.00
431;DHT22;202;48.764;9.172;2022-11-23T04:16:50;7.30;57.80
431;DHT22;202;48.764;9.172;2022-11-23T04:19:17;7.30;58.10
431;DHT22;202;48.764;9.172;2022-11-23T04:21:44;7.20;58.30
431;DHT22;202;48.764;9.172;2022-11-23T04:24:11;7.10;58.60
431;DHT22;202;48.764;9.172;2022-11-23T04:26:40;7.10;59.20
431;DHT22;202;48.764;9.172;2022-11-23T04:29:28;7.10;59.00
431;DHT22;202;48.764;9.172;2022-11-23T04:31:55;7.10;58.80
431;DHT22;202;48.764;9.172;2022-11-23T04:34:22;7.00;58.80
431;DHT22;202;48.764;9.172;2022-11-23T04:36:49;7.10;59.10
431;DHT22;202;48.764;9.172;2022-11-23T04:39:15;7.00;59.00
431;DHT22;202;48.764;9.172;2022-11-23T04:41:49;6.90;59.10
431;DHT22;202;48.764;9.172;2022-11-23T04:44:20;7.00;58.90
431;DHT22;202;48.764;9.172;2022-11-23T04:46:47;6.70;59.40
431;DHT22;202;48.764;9.172;2022-11-23T04:49:15;6.80;59.80
431;DHT22;202;48.764;9.172;2022-11-23T04:51:42;6.60;60.70
431;DHT22;202;48.764;9.172;2022-11-23T04:54:09;6.80;60.90
431;DHT22;202;48.764;9.172;2022-11-23T04:56:36;6.70;59.80
431;DHT22;202;48.764;9.172;2022-11-23T04:59:04;6.70;59.90
431;DHT22;202;48.764;9.172;2022-11-23T05:01:31;6.50;60.70
431;DHT22;202;48.764;9.172;2022-11-23T05:03:58;6.60;60.70
431;DHT22;202;48.764;9.172;2022-11-23T05:06:25;6.60;60.70
431;DHT22;202;48.764;9.172;2022-11-23T05:08:52;6.60;61.00
431;DHT22;202;48.764;9.172;2022-11-23T05:11:19;6.60;60.70
431;DHT22;202;48.764;9.172;2022-11-23T05:13:46;6.70;60.80
431;DHT22;202;48.764;9.172;2022-11-23T05:16:16;6.90;61.00
431;DHT22;202;48.764;9.172;2022-11-23T05:18:43;7.00;60.10
431;DHT22;202;48.764;9.172;2022-11-23T05:21:10;7.00;59.90
431;DHT22;202;48.764;9.172;2022-11-23T05:23:38;6.90;59.70
431;DHT22;202;48.764;9.172;2022-11-23T05:26:05;6.70;60.80
431;DHT22;202;48.764;9.172;2022-11-23T05:28:32;6.80;60.90
431;DHT22;202;48.764;9.172;2022-11-23T05:30:59;6.80;60.90
431;DHT22;202;48.764;9.172;2022-11-23T05:33:27;6.80;60.90
431;DHT22;202;48.764;9.172;2022-11-23T05:35:54;6.70;61.60
431;DHT22;202;48.764;9.172;2022-11-23T05:38:21;6.60;61.70
431;DHT22;202;48.764;9.172;2022-11-23T05:40:48;6.80;60.90
431;DHT22;202;48.764;9.172;2022-11-23T05:43:14;6.70;60.80
431;DHT22;202;48.764;9.172;2022-11-23T05:45:41;6.80;60.90
431;DHT22;202;48.764;9.172;2022-11-23T05:48:08;6.80;60.60
431;DHT22;202;48.764;9.172;2022-11-23T05:50:37;6.90;60.10
431;DHT22;202;48.764;9.172;2022-11-23T05:53:04;6.80;60.90
431;DHT22;202;48.764;9.172;2022-11-23T05:55:31;7.00;59.70
431;DHT22;202;48.764;9.172;2022-11-23T05:57:58;7.00;59.80
431;DHT22;202;48.764;9.172;2022-11-23T06:00:25;6.90;59.70
431;DHT22;202;48.764;9.172;2022-11-23T06:02:52;6.60;60.70
431;DHT22;202;48.764;9.172;2022-11-23T06:05:23;6.70;60.80
431;DHT22;202;48.764;9.172;2022-11-23T06:07:53;6.90;60.80
431;DHT22;202;48.764;9.172;2022-11-23T06:10:19;7.00;60.20
431;DHT22;202;48.764;9.172;2022-11-23T06:15:48;7.30;58.70
431;DHT22;202;48.764;9.172;2022-11-23T06:18:17;7.20;59.40
431;DHT22;202;48.764;9.172;2022-11-23T06:20:47;7.30;58.90
431;DHT22;202;48.764;9.172;2022-11-23T06:23:18;7.40;58.70
431;DHT22;202;48.764;9.172;2022-11-23T06:25:45;7.40;58.10
431;DHT22;202;48.764;9.172;2022-11-23T06:28:11;7.30;58.40
431;DHT22;202;48.764;9.172;2022-11-23T06:30:38;7.30;57.80
431;DHT22;202;48.764;9.172;2022-11-23T06:33:05;7.40;58.00
431;DHT22;202;48.764;9.172;2022-11-23T06:35:39;7.50;57.50
431;DHT22;202;48.764;9.172;2022-11-23T06:38:07;7.50;56.90
431;DHT22;202;48.764;9.172;2022-11-23T06:40:35;7.50;57.00
431;DHT22;202;48.764;9.172;2022-11-23T06:43:02;7.40;56.80
431;DHT22;202;48.764;9.172;2022-11-23T06:45:29;7.40;57.80
431;DHT22;202;48.764;9.172;2022-11-23T06:48:05;7.40;57.20
431;DHT22;202;48.764;9.172;2022-11-23T06:50:34;7.10;58.30
431;DHT22;202;48.764;9.172;2022-11-23T06:53:04;7.10;59.00
431;DHT22;202;48.764;9.172;2022-11-23T06:55:38;7.10;59.30
431;DHT22;202;48.764;9.172;2022-11-23T06:58:05;7.00;58.90
431;DHT22;202;48.764;9.172;2022-11-23T07:00:32;6.90;59.30
431;DHT22;202;48.764;9.172;2022-11-23T07:02:59;6.80;60.20
431;DHT22;202;48.764;9.172;2022-11-23T07:05:26;6.90;60.40
431;DHT22;202;48.764;9.172;2022-11-23T07:07:53;6.90;59.70
431;DHT22;202;48.764;9.172;2022-11-23T07:10:23;6.80;60.40
431;DHT22;202;48.764;9.172;2022-11-23T07:12:52;6.70;60.70
431;DHT22;202;48.764;9.172;2022-11-23T07:15:19;6.80;60.40
431;DHT22;202;48.764;9.172;2022-11-23T07:17:52;6.70;60.80
431;DHT22;202;48.764;9.172;2022-11-23T07:20:22;6.80;60.20
431;DHT22;202;48.764;9.172;2022-11-23T07:22:58;7.00;60.30
431;DHT22;202;48.764;9.172;2022-11-23T07:25:26;7.10;59.40
431;DHT22;202;48.764;9.172;2022-11-23T07:28:03;7.00;59.10
431;DHT22;202;48.764;9.172;2022-11-23T07:30:31;7.00;59.60
431;DHT22;202;48.764;9.172;2022-11-23T07:33:12;7.10;58.80
431;DHT22;202;48.764;9.172;2022-11-23T07:36:05;7.20;59.00
431;DHT22;202;48.764;9.172;2022-11-23T07:38:53;7.30;58.60
431;DHT22;202;48.764;9.172;2022-11-23T07:41:43;7.40;58.30
431;DHT22;202;48.764;9.172;2022-11-23T07:44:40;7.40;57.30
431;DHT22;202;48.764;9.172;2022-11-23T07:47:24;7.60;57.00
431;DHT22;202;48.764;9.172;2022-11-23T07:53:52;7.90;56.50
431;DHT22;202;48.764;9.172;2022-11-23T07:56:54;7.90;56.80
431;DHT22;202;48.764;9.172;2022-11-23T07:59:29;8.10;55.80
431;DHT22;202;48.764;9.172;2022-11-23T08:02:17;8.20;55.30
431;DHT22;202;48.764;9.172;2022-11-23T08:04:49;8.40;55.10
431;DHT22;202;48.764;9.172;2022-11-23T08:07:16;8.40;53.70
431;DHT22;202;48.764;9.172;2022-11-23T08:09:43;8.50;53.40
431;DHT22;202;48.764;9.172;2022-11-23T08:12:13;8.50;53.20
431;DHT22;202;48.764;9.172;2022-11-23T08:14:40;8.50;53.50
431;DHT22;202;48.764;9.172;2022-11-23T08:17:07;8.40;53.00
431;DHT22;202;48.764;9.172;2022-11-23T08:19:36;8.50;53.30
431;DHT22;202;48.764;9.172;2022-11-23T08:22:03;8.50;53.00
431;DHT22;202;48.764;9.172;2022-11-23T08:24:31;8.50;53.10
431;DHT22;202;48.764;9.172;2022-11-23T08:27:00;8.50;53.30
431;DHT22;202;48.764;9.172;2022-11-23T08:29:27;8.50;53.00
431;DHT22;202;48.764;9.172;2022-11-23T08:31:55;8.40;52.90
431;DHT22;202;48.764;9.172;2022-11-23T08:34:22;8.50;53.50
431;DHT22;202;48.764;9.172;2022-11-23T08:36:58;8.50;53.00
431;DHT22;202;48.764;9.172;2022-11-23T08:39:26;8.40;52.90
431;DHT22;202;48.764;9.172;2022-11-23T08:41:57;8.50;53.40
431;DHT22;202;48.764;9.172;2022-11-23T08:44:25;8.60;53.10
431;DHT22;202;48.764;9.172;2022-11-23T08:46:52;8.60;53.20
431;DHT22;202;48.764;9.172;2022-11-23T08:49:22;8.70;52.40
431;DHT22;202;48.764;9.172;2022-11-23T08:51:51;8.80;52.70
431;DHT22;202;48.764;9.172;2022-11-23T08:54:21;8.90;52.00
431;DHT22;202;48.764;9.172;2022-11-23T08:56:51;8.70;51.80
431;DHT22;202;48.764;9.172;2022-11-23T08:59:18;8.70;51.50
431;DHT22;202;48.764;9.172;2022-11-23T09:01:45;8.80;51.80
431;DHT22;202;48.764;9.172;2022-11-23T09:04:12;8.90;51.80
431;DHT22;202;48.764;9.172;2022-11-23T09:06:42;8.70;51.40
431;DHT22;202;48.764;9.172;2022-11-23T09:09:11;8.80;50.90
431;DHT22;202;48.764;9.172;2022-11-23T09:11:38;8.80;50.70
431;DHT22;202;48.764;9.172;2022-11-23T09:14:07;9.00;50.60
431;DHT22;202;48.764;9.172;2022-11-23T09:16:38;9.00;50.40
431;DHT22;202;48.764;9.172;2022-11-23T09:19:05;9.10;50.10
431;DHT22;202;48.764;9.172;2022-11-23T09:21:32;9.20;48.80
431;DHT22;202;48.764;9.172;2022-11-23T09:24:01;9.10;48.80
431;DHT22;202;48.764;9.172;2022-11-23T09:26:31;9.20;48.80
431;DHT22;202;48.764;9.172;2022-11-23T09:29:00;9.00;48.60
431;DHT22;202;48.764;9.172;2022-11-23T09:31:27;9.00;48.60
431;DHT22;202;48.764;9.172;2022-11-23T09:33:56;9.00;48.60
431;DHT22;202;48.764;9.172;2022-11-23T09:36:31;8.90;49.30
431;DHT22;202;48.764;9.172;2022-11-23T09:39:03;8.70;49.80
431;DHT22;202;48.764;9.172;2022-11-23T09:42:00;8.80;49.10
431;DHT22;202;48.764;9.172;2022-11-23T09:44:40;8.90;49.20
431;DHT22;202;48.764;9.172;2022-11-23T09:47:25;9.00;48.60
431;DHT22;202;48.764;9.172;2022-11-23T09:50:03;9.00;48.00
431;DHT22;202;48.764;9.172;2022-11-23T09:52:35;8.90;48.20
431;DHT22;202;48.764;9.172;2022-11-23T09:55:15;9.00;47.60
431;DHT22;202;48.764;9.172;2022-11-23T09:57:47;9.10;47.50
431;DHT22;202;48.764;9.172;2022-11-23T10:00:19;9.20;46.50
431;DHT22;202;48.764;9.172;2022-11-23T10:02:46;9.40;46.70
431;DHT22;202;48.764;9.172;2022-11-23T10:05:17;9.50;46.10
431;DHT22;202;48.764;9.172;2022-11-23T10:08:01;9.40;46.00
431;DHT22;202;48.764;9.172;2022-11-23T10:10:38;9.60;45.90
431;DHT22;202;48.764;9.172;2022-11-23T10:13:21;9.80;44.40
431;DHT22;202;48.764;9.172;2022-11-23T10:16:09;10.00;44.10
431;DHT22;202;48.764;9.172;2022-11-23T10:18:48;9.90;44.50
431;DHT22;202;48.764;9.172;2022-11-23T10:21:27;10.10;43.70
431;DHT22;202;48.764;9.172;2022-11-23T10:24:08;10.20;42.50
431;DHT22;202;48.764;9.172;2022-11-23T10:26:40;10.30;43.00
431;DHT22;202;48.764;9.172;2022-11-23T10:29:29;10.50;42.10
431;DHT22;202;48.764;9.172;2022-11-23T10:31:59;10.30;42.00
431;DHT22;202;48.764;9.172;2022-11-23T10:34:45;10.20;42.40
431;DHT22;202;48.764;9.172;2022-11-23T10:37:15;10.10;43.30
431;DHT22;202;48.764;9.172;2022-11-23T10:39:45;10.30;42.80
431;DHT22;202;48.764;9.172;2022-11-23T10:42:19;10.50;42.50
431;DHT22;202;48.764;9.172;2022-11-23T10:44:59;10.50;40.90
431;DHT22;202;48.764;9.172;2022-11-23T10:47:36;10.60;41.00
431;DHT22;202;48.764;9.172;2022-11-23T10:50:24;10.50;41.40
431;DHT22;202;48.764;9.172;2022-11-23T10:53:20;10.60;42.30
431;DHT22;202;48.764;9.172;2022-11-23T10:55:53;10.80;40.20
431;DHT22;202;48.764;9.172;2022-11-23T10:58:27;10.80;40.50
431;DHT22;202;48.764;9.172;2022-11-23T11:01:00;10.80;40.00
431;DHT22;202;48.764;9.172;2022-11-23T11:03:31;10.90;39.20
431;DHT22;202;48.764;9.172;2022-11-23T11:06:00;11.10;38.50
431;DHT22;202;48.764;9.172;2022-11-23T11:08:33;11.00;38.90
431;DHT22;202;48.764;9.172;2022-11-23T11:11:03;10.90;39.50
431;DHT22;202;48.764;9.172;2022-11-23T11:13:37;10.90;39.50
431;DHT22;202;48.764;9.172;2022-11-23T11:16:19;10.80;39.40
431;DHT22;202;48.764;9.172;2022-11-23T11:18:47;10.60;40.20
431;DHT22;202;48.764;9.172;2022-11-23T11:21:31;10.80;40.10
431;DHT22;202;48.764;9.172;2022-11-23T11:24:00;10.90;39.70
431;DHT22;202;48.764;9.172;2022-11-23T11:26:47;10.80;40.40
431;DHT22;202;48.764;9.172;2022-11-23T11:29:28;10.80;41.20
431;DHT22;202;48.764;9.172;2022-11-23T11:32:01;10.90;39.80
431;DHT22;202;48.764;9.172;2022-11-23T11:34:34;10.80;39.10
431;DHT22;202;48.764;9.172;2022-11-23T11:37:10;10.80;39.40
431;DHT22;202;48.764;9.172;2022-11-23T11:39:44;10.90;38.90
431;DHT22;202;48.764;9.172;2022-11-23T11:42:17;11.00;39.10
431;DHT22;202;48.764;9.172;2022-11-23T11:44:46;11.00;38.20
431;DHT22;202;48.764;9.172;2022-11-23T11:47:24;11.00;37.80
431;DHT22;202;48.764;9.172;2022-11-23T11:49:56;11.00;38.10
431;DHT22;202;48.764;9.172;2022-11-23T11:52:27;11.00;37.60
431;DHT22;202;48.764;9.172;2022-11-23T11:55:01;11.10;37.60
431;DHT22;202;48.764;9.172;2022-11-23T11:57:34;11.00;37.80
431;DHT22;202;48.764;9.172;2022-11-23T12:00:06;10.90;36.70
431;DHT22;202;48.764;9.172;2022-11-23T12:02:43;10.90;37.40
431;DHT22;202;48.764;9.172;2022-11-23T12:05:22;10.90;37.10
431;DHT22;202;48.764;9.172;2022-11-23T12:07:56;11.00;37.90
431;DHT22;202;48.764;9.172;2022-11-23T12:10:31;11.00;37.90
431;DHT22;202;48.764;9.172;2022-11-23T12:13:00;11.00;37.60
431;DHT22;202;48.764;9.172;2022-11-23T12:15:32;11.10;37.60
431;DHT22;202;48.764;9.172;2022-11-23T12:21:25;11.10;37.20
431;DHT22;202;48.764;9.172;2022-11-23T12:24:04;10.80;37.50
431;DHT22;202;48.764;9.172;2022-11-23T12:26:43;10.80;37.70
431;DHT22;202;48.764;9.172;2022-11-23T12:29:36;10.60;36.80
431;DHT22;202;48.764;9.172;2022-11-23T12:32:13;10.80;37.10
431;DHT22;202;48.764;9.172;2022-11-23T12:35:00;10.80;36.30
431;DHT22;202;48.764;9.172;2022-11-23T12:37:47;10.80;36.60
431;DHT22;202;48.764;9.172;2022-11-23T12:40:43;10.80;36.60
431;DHT22;202;48.764;9.172;2022-11-23T12:43:20;10.70;36.10
431;DHT22;202;48.764;9.172;2022-11-23T12:46:07;10.80;36.00
431;DHT22;202;48.764;9.172;2022-11-23T12:48:55;10.70;36.50
431;DHT22;202;48.764;9.172;2022-11-23T12:51:35;10.60;36.30
431;DHT22;202;48.764;9.172;2022-11-23T12:54:24;10.70;37.20
431;DHT22;202;48.764;9.172;2022-11-23T12:57:06;10.70;36.30
431;DHT22;202;48.764;9.172;2022-11-23T12:59:42;10.80;36.40
431;DHT22;202;48.764;9.172;2022-11-23T13:02:23;10.80;35.80
431;DHT22;202;48.764;9.172;2022-11-23T13:05:24;10.80;35.40
431;DHT22;202;48.764;9.172;2022-11-23T13:08:28;10.90;35.60
431;DHT22;202;48.764;9.172;2022-11-23T13:11:10;10.80;34.90
431;DHT22;202;48.764;9.172;2022-11-23T13:14:07;10.80;35.80
431;DHT22;202;48.764;9.172;2022-11-23T13:16:48;10.70;34.30
431;DHT22;202;48.764;9.172;2022-11-23T13:19:38;10.60;34.30
431;DHT22;202;48.764;9.172;2022-11-23T13:22:15;10.70;34.80
431;DHT22;202;48.764;9.172;2022-11-23T13:25:00;10.80;34.80
431;DHT22;202;48.764;9.172;2022-11-23T13:27:40;10.80;35.50
431;DHT22;202;48.764;9.172;2022-11-23T13:30:24;10.80;35.20
431;DHT22;202;48.764;9.172;2022-11-23T13:32:55;10.80;35.40
431;DHT22;202;48.764;9.172;2022-11-23T13:35:53;10.80;35.50
431;DHT22;202;48.764;9.172;2022-11-23T13:38:40;10.90;35.90
431;DHT22;202;48.764;9.172;2022-11-23T13:44:25;10.80;36.10
431;DHT22;202;48.764;9.172;2022-11-23T13:47:02;10.80;36.30
431;DHT22;202;48.764;9.172;2022-11-23T13:49:39;10.90;36.70
431;DHT22;202;48.764;9.172;2022-11-23T13:52:25;10.90;36.60
431;DHT22;202;48.764;9.172;2022-11-23T13:55:00;10.90;36.60
431;DHT22;202;48.764;9.172;2022-11-23T13:57:29;10.80;36.80
431;DHT22;202;48.764;9.172;2022-11-23T14:06:00;10.80;37.10
431;DHT22;202;48.764;9.172;2022-11-23T14:08:29;10.80;37.30
431;DHT22;202;48.764;9.172;2022-11-23T14:11:00;10.90;37.70
431;DHT22;202;48.764;9.172;2022-11-23T14:13:35;10.90;37.60
431;DHT22;202;48.764;9.172;2022-11-23T14:16:03;10.90;37.30
431;DHT22;202;48.764;9.172;2022-11-23T14:18:50;11.00;37.70
431;DHT22;202;48.764;9.172;2022-11-23T14:21:24;11.00;38.00
431;DHT22;202;48.764;9.172;2022-11-23T14:24:31;11.00;38.00
431;DHT22;202;48.764;9.172;2022-11-23T14:27:14;10.80;38.50
431;DHT22;202;48.764;9.172;2022-11-23T14:30:05;10.80;38.70
431;DHT22;202;48.764;9.172;2022-11-23T14:32:46;10.70;39.20
431;DHT22;202;48.764;9.172;2022-11-23T14:35:24;10.50;39.20
431;DHT22;202;48.764;9.172;2022-11-23T14:38:14;10.60;39.20
431;DHT22;202;48.764;9.172;2022-11-23T14:40:52;10.50;39.20
431;DHT22;202;48.764;9.172;2022-11-23T14:43:23;10.60;38.60
431;DHT22;202;48.764;9.172;2022-11-23T14:46:00;10.60;38.40
431;DHT22;202;48.764;9.172;2022-11-23T14:48:29;10.60;38.10
431;DHT22;202;48.764;9.172;2022-11-23T14:51:00;10.60;38.00
431;DHT22;202;48.764;9.172;2022-11-23T14:53:33;10.70;38.30
431;DHT22;202;48.764;9.172;2022-11-23T14:56:04;10.80;37.70
431;DHT22;202;48.764;9.172;2022-11-23T14:58:37;10.80;37.80
431;DHT22;202;48.764;9.172;2022-11-23T15:01:12;10.80;37.70
431;DHT22;202;48.764;9.172;2022-11-23T15:03:54;10.80;38.20
431;DHT22;202;48.764;9.172;2022-11-23T15:06:27;10.80;38.30
431;DHT22;202;48.764;9.172;2022-11-23T15:09:03;10.90;38.70
431;DHT22;202;48.764;9.172;2022-11-23T15:11:36;10.90;38.40
431;DHT22;202;48.764;9.172;2022-11-23T15:14:16;10.90;38.30
431;DHT22;202;48.764;9.172;2022-11-23T15:17:12;10.80;38.60
431;DHT22;202;48.764;9.172;2022-11-23T15:19:41;10.80;38.80
431;DHT22;202;48.764;9.172;2022-11-23T15:22:13;10.80;39.20
431;DHT22;202;48.764;9.172;2022-11-23T15:24:45;10.80;39.40
431;DHT22;202;48.764;9.172;2022-11-23T15:27:15;10.70;39.30
431;DHT22;202;48.764;9.172;2022-11-23T15:29:51;10.70;39.30
431;DHT22;202;48.764;9.172;2022-11-23T15:32:24;10.60;39.20
431;DHT22;202;48.764;9.172;2022-11-23T15:34:54;10.50;39.80
431;DHT22;202;48.764;9.172;2022-11-23T15:37:23;10.60;39.40
431;DHT22;202;48.764;9.172;2022-11-23T15:39:55;10.50;39.90
431;DHT22;202;48.764;9.172;2022-11-23T15:42:24;10.50;39.20
431;DHT22;202;48.764;9.172;2022-11-23T15:44:51;10.60;39.30
431;DHT22;202;48.764;9.172;2022-11-23T15:47:21;10.60;39.70
431;DHT22;202;48.764;9.172;2022-11-23T15:49:52;10.60;40.20
431;DHT22;202;48.764;9.172;2022-11-23T15:52:23;10.60;40.00
431;DHT22;202;48.764;9.172;2022-11-23T15:54:54;10.60;40.20
431;DHT22;202;48.764;9.172;2022-11-23T15:57:24;10.60;40.20
431;DHT22;202;48.764;9.172;2022-11-23T15:59:56;10.60;40.00
431;DHT22;202;48.764;9.172;2022-11-23T16:02:25;10.60;39.20
431;DHT22;202;48.764;9.172;2022-11-23T16:05:11;10.60;39.50
431;DHT22;202;48.764;9.172;2022-11-23T16:11:29;10.60;40.10
431;DHT22;202;48.764;9.172;2022-11-23T16:14:34;10.60;39.80
431;DHT22;202;48.764;9.172;2022-11-23T16:17:19;10.60;40.80
431;DHT22;202;48.764;9.172;2022-11-23T16:19:48;10.60;39.60
431;DHT22;202;48.764;9.172;2022-11-23T16:22:21;10.50;39.50
431;DHT22;202;48.764;9.172;2022-11-23T16:24:51;10.50;39.90
431;DHT22;202;48.764;9.172;2022-11-23T16:27:26;10.60;39.80
431;DHT22;202;48.764;9.172;2022-11-23T16:29:53;10.60;39.30
431;DHT22;202;48.764;9.172;2022-11-23T16:32:22;10.60;39.20
431;DHT22;202;48.764;9.172;2022-11-23T16:34:50;10.60;39.10
431;DHT22;202;48.764;9.172;2022-11-23T16:37:19;10.60;39.20
431;DHT22;202;48.764;9.172;2022-11-23T16:39:46;10.50;39.20
431;DHT22;202;48.764;9.172;2022-11-23T16:42:14;10.50;39.00
431;DHT22;202;48.764;9.172;2022-11-23T16:44:42;10.60;38.70
431;DHT22;202;48.764;9.172;2022-11-23T16:47:19;10.60;38.90
431;DHT22;202;48.764;9.172;2022-11-23T16:49:47;10.60;39.30
431;DHT22;202;48.764;9.172;2022-11-23T16:52:17;10.60;38.90
431;DHT22;202;48.764;9.172;2022-11-23T16:54:45;10.70;39.30
431;DHT22;202;48.764;9.172;2022-11-23T16:57:27;10.70;39.40
431;DHT22;202;48.764;9.172;2022-11-23T16:59:56;10.70;39.80
431;DHT22;202;48.764;9.172;2022-11-23T17:02:24;10.70;41.00
431;DHT22;202;48.764;9.172;2022-11-23T17:04:52;10.70;42.20
431;DHT22;202;48.764;9.172;2022-11-23T17:07:19;10.70;43.00
431;DHT22;202;48.764;9.172;2022-11-23T17:09:46;10.60;43.50
431;DHT22;202;48.764;9.172;2022-11-23T17:12:15;10.70;42.90
431;DHT22;202;48.764;9.172;2022-11-23T17:14:45;10.60;44.30
431;DHT22;202;48.764;9.172;2022-11-23T17:17:17;10.50;44.10
431;DHT22;202;48.764;9.172;2022-11-23T17:19:45;10.50;44.10
431;DHT22;202;48.764;9.172;2022-11-23T17:22:14;10.50;45.40
431;DHT22;202;48.764;9.172;2022-11-23T17:24:41;10.50;46.20
431;DHT22;202;48.764;9.172;2022-11-23T17:27:11;10.50;48.80
431;DHT22;202;48.764;9.172;2022-11-23T17:33:17;10.30;47.60
431;DHT22;202;48.764;9.172;2022-11-23T17:35:47;10.20;46.20
431;DHT22;202;48.764;9.172;2022-11-23T17:38:39;10.20;47.00
431;DHT22;202;48.764;9.172;2022-11-23T17:41:25;10.20;47.70
431;DHT22;202;48.764;9.172;2022-11-23T17:44:03;10.30;49.20
431;DHT22;202;48.764;9.172;2022-11-23T17:46:30;10.10;49.30